Time;durP1;ratioP1;P1;durP2;ratioP2;P2;SDS_P1;SDS_P2;PMS_P1;PMS_P2;Temp;Humidity;BMP_temperature;BMP_pressure;BME280_temperature;BME280_humidity;BME280_pressure;Samples;Min_cycle;Max_cycle;Signal;HPM_P1;HPM_P2
2024/01/20 00:01:09;;;;;;;29.25;14.55;;;;;;;;;;5012453;28;20032;-59
2024/01/20 00:03:34;;;;;;;21.25;11.52;;;;;;;;;;4994606;28;20021;-59
2024/01/20 00:05:59;;;;;;;21.90;12.38;;;;;;;;;;5012093;28;20025;-58
2024/01/20 00:08:25;;;;;;;27.67;13.40;;;;;;;;;;5012022;28;20034;-59
2024/01/20 00:10:50;;;;;;;33.08;17.08;;;;;;;;;;4994525;28;20496;-58
2024/01/20 00:13:15;;;;;;;25.20;12.20;;;;;;;;;;5013238;28;20454;-58
2024/01/20 00:15:41;;;;;;;24.75;11.95;;;;;;;;;;5013931;28;20040;-58
2024/01/20 00:18:06;;;;;;;24.27;12.95;;;;;;;;;;5012862;28;20033;-59
2024/01/20 00:20:31;;;;;;;24.60;12.52;;;;;;;;;;4994563;28;20469;-59
2024/01/20 00:22:57;;;;;;;24.65;13.10;;;;;;;;;;4990219;28;20049;-59
2024/01/20 00:25:22;;;;;;;24.67;13.52;;;;;;;;;;4992256;28;20493;-58
2024/01/20 00:27:50;;;;;;;28.15;14.40;;;;;;;;;;4992360;28;20473;-58
2024/01/20 00:30:16;;;;;;;25.67;13.55;;;;;;;;;;4992359;28;20117;-58
2024/01/20 00:32:41;;;;;;;23.52;12.82;;;;;;;;;;4992351;28;20117;-58
2024/01/20 00:35:07;;;;;;;31.08;13.82;;;;;;;;;;4994136;28;20489;-58
2024/01/20 00:37:33;;;;;;;18.52;9.77;;;;;;;;;;4994718;28;20031;-58
2024/01/20 00:39:58;;;;;;;26.65;12.30;;;;;;;;;;4992922;28;20493;-58
2024/01/20 00:42:23;;;;;;;29.17;14.52;;;;;;;;;;4994087;28;20113;-59
2024/01/20 00:44:49;;;;;;;29.00;16.10;;;;;;;;;;4994678;28;20030;-59
2024/01/20 00:47:14;;;;;;;31.70;14.43;;;;;;;;;;4994395;28;20065;-58
2024/01/20 00:49:40;;;;;;;27.75;13.55;;;;;;;;;;4994149;28;20053;-59
2024/01/20 00:52:05;;;;;;;23.65;13.07;;;;;;;;;;4994561;28;20034;-58
2024/01/20 00:54:30;;;;;;;25.42;13.43;;;;;;;;;;4994094;28;20039;-58
2024/01/20 00:56:56;;;;;;;24.52;12.70;;;;;;;;;;4993663;28;20023;-58
2024/01/20 00:59:21;;;;;;;25.63;12.45;;;;;;;;;;4994166;28;20093;-58
2024/01/20 01:01:47;;;;;;;29.60;15.00;;;;;;;;;;4994216;28;20037;-58
2024/01/20 01:04:12;;;;;;;29.70;13.90;;;;;;;;;;4994121;28;20030;-58
2024/01/20 01:06:37;;;;;;;24.48;12.52;;;;;;;;;;4993072;28;20533;-58
2024/01/20 01:09:03;;;;;;;24.55;12.48;;;;;;;;;;4991861;28;20466;-59
2024/01/20 01:11:28;;;;;;;24.33;11.27;;;;;;;;;;5006961;28;20031;-59
2024/01/20 01:13:53;;;;;;;19.80;10.40;;;;;;;;;;5006971;28;20031;-59
2024/01/20 01:16:22;;;;;;;21.23;10.80;;;;;;;;;;4991872;28;20034;-59
2024/01/20 01:18:47;;;;;;;17.40;9.02;;;;;;;;;;4991845;28;20034;-59
2024/01/20 01:21:13;;;;;;;21.48;10.43;;;;;;;;;;4991839;28;20029;-57
2024/01/20 01:23:38;;;;;;;20.08;9.85;;;;;;;;;;5008648;28;20149;-57
2024/01/20 01:26:03;;;;;;;18.60;9.40;;;;;;;;;;5026990;28;20378;-58
2024/01/20 01:28:29;;;;;;;20.58;10.30;;;;;;;;;;5011693;28;20022;-58
2024/01/20 01:30:54;;;;;;;17.40;9.38;;;;;;;;;;4993982;28;20026;-57
2024/01/20 01:33:20;;;;;;;17.95;9.60;;;;;;;;;;4994087;28;20123;-57
2024/01/20 01:35:47;;;;;;;18.50;10.88;;;;;;;;;;5029590;28;20377;-57
2024/01/20 01:38:12;;;;;;;18.48;10.32;;;;;;;;;;5014968;28;20033;-56
2024/01/20 01:40:38;;;;;;;18.13;9.75;;;;;;;;;;4997324;28;20389;-56
2024/01/20 01:43:03;;;;;;;19.42;9.82;;;;;;;;;;5015371;28;20106;-58
2024/01/20 01:45:29;;;;;;;18.92;9.07;;;;;;;;;;5016707;28;20045;-58
2024/01/20 01:47:55;;;;;;;19.30;10.07;;;;;;;;;;5016649;28;20468;-58
2024/01/20 01:50:21;;;;;;;21.48;9.48;;;;;;;;;;5016571;28;20076;-58
2024/01/20 01:52:50;;;;;;;21.95;10.38;;;;;;;;;;5016538;28;20026;-58
2024/01/20 01:55:16;;;;;;;20.13;9.85;;;;;;;;;;5016533;28;20026;-58
2024/01/20 01:57:41;;;;;;;18.08;9.70;;;;;;;;;;5016536;28;20098;-58
2024/01/20 02:00:07;;;;;;;16.25;8.13;;;;;;;;;;5016537;28;20033;-58
2024/01/20 02:02:32;;;;;;;15.82;9.18;;;;;;;;;;5016244;28;20075;-58
2024/01/20 02:04:58;;;;;;;16.67;9.43;;;;;;;;;;5016525;28;20036;-58
2024/01/20 02:07:24;;;;;;;22.83;9.82;;;;;;;;;;5016360;28;20393;-58
2024/01/20 02:09:49;;;;;;;16.00;8.15;;;;;;;;;;5016441;28;20071;-58
2024/01/20 02:12:15;;;;;;;15.63;8.80;;;;;;;;;;5016291;28;20025;-58
2024/01/20 02:14:44;;;;;;;18.92;9.77;;;;;;;;;;5016223;28;20022;-58
2024/01/20 02:17:09;;;;;;;14.02;6.90;;;;;;;;;;5016044;28;20038;-58
2024/01/20 02:19:39;;;;;;;17.10;9.13;;;;;;;;;;5016064;28;20034;-58
2024/01/20 02:22:11;;;;;;;11.90;7.32;;;;;;;;;;5015828;28;20042;-57
2024/01/20 02:24:37;;;;;;;12.73;7.47;;;;;;;;;;5016081;28;20026;-58
2024/01/20 02:27:03;;;;;;;13.00;7.57;;;;;;;;;;4998452;28;20029;-58
2024/01/20 02:29:28;;;;;;;13.85;7.70;;;;;;;;;;5015862;28;20030;-57
2024/01/20 02:31:54;;;;;;;13.75;8.13;;;;;;;;;;4998223;28;20022;-58
2024/01/20 02:34:19;;;;;;;12.52;7.65;;;;;;;;;;5015818;28;20061;-57
2024/01/20 02:36:44;;;;;;;13.52;7.03;;;;;;;;;;5015735;28;20477;-57
2024/01/20 02:39:10;;;;;;;15.60;8.73;;;;;;;;;;5015702;28;20056;-58
2024/01/20 02:41:35;;;;;;;12.30;7.72;;;;;;;;;;4998201;28;20030;-58
2024/01/20 02:44:00;;;;;;;13.98;7.35;;;;;;;;;;5015475;28;20405;-58
2024/01/20 02:46:26;;;;;;;11.73;7.28;;;;;;;;;;5014682;28;20481;-58
2024/01/20 02:48:51;;;;;;;19.42;9.25;;;;;;;;;;5015582;28;20036;-58
2024/01/20 02:51:17;;;;;;;17.02;9.05;;;;;;;;;;5015437;28;20033;-57
2024/01/20 02:53:42;;;;;;;15.88;8.07;;;;;;;;;;5015529;28;20022;-58
2024/01/20 02:56:07;;;;;;;17.27;8.60;;;;;;;;;;4997871;28;20504;-57
2024/01/20 02:58:33;;;;;;;16.42;8.50;;;;;;;;;;4998092;28;20038;-57
2024/01/20 03:01:00;;;;;;;15.07;8.95;;;;;;;;;;4998063;28;20034;-57
2024/01/20 03:03:26;;;;;;;17.70;8.93;;;;;;;;;;4997709;28;20038;-57
2024/01/20 03:05:51;;;;;;;15.20;9.10;;;;;;;;;;5015189;28;20045;-57
2024/01/20 03:08:17;;;;;;;14.05;8.80;;;;;;;;;;4997627;28;20055;-57
2024/01/20 03:10:42;;;;;;;13.45;8.70;;;;;;;;;;5015162;28;20053;-56
2024/01/20 03:13:08;;;;;;;16.40;9.13;;;;;;;;;;4997752;28;20037;-56
2024/01/20 03:15:33;;;;;;;15.02;8.43;;;;;;;;;;5015027;28;20033;-57
2024/01/20 03:17:58;;;;;;;16.92;8.30;;;;;;;;;;5014994;28;20045;-58
2024/01/20 03:20:24;;;;;;;15.65;8.77;;;;;;;;;;5014991;28;20022;-58
2024/01/20 03:22:49;;;;;;;13.80;7.95;;;;;;;;;;5014742;28;20504;-59
2024/01/20 03:25:15;;;;;;;15.40;8.13;;;;;;;;;;5014930;28;20022;-59
2024/01/20 03:27:40;;;;;;;13.40;8.30;;;;;;;;;;4997279;28;20469;-59
2024/01/20 03:30:06;;;;;;;13.13;8.77;;;;;;;;;;4997386;28;20060;-59
2024/01/20 03:32:31;;;;;;;14.85;8.88;;;;;;;;;;5014717;28;20065;-59
2024/01/20 03:34:57;;;;;;;14.63;8.63;;;;;;;;;;4997044;28;20498;-59
2024/01/20 03:37:22;;;;;;;13.80;8.25;;;;;;;;;;5014588;28;20036;-58
2024/01/20 03:39:48;;;;;;;16.55;8.68;;;;;;;;;;5029887;28;20041;-58
2024/01/20 03:42:13;;;;;;;15.35;8.70;;;;;;;;;;5014443;28;20100;-59
2024/01/20 03:44:38;;;;;;;14.38;8.18;;;;;;;;;;5014885;28;20061;-59
2024/01/20 03:47:04;;;;;;;15.05;8.88;;;;;;;;;;4996923;28;20030;-59
2024/01/20 03:49:29;;;;;;;17.48;8.75;;;;;;;;;;5014560;28;20076;-59
2024/01/20 03:51:55;;;;;;;13.85;8.13;;;;;;;;;;4996824;28;20446;-59
2024/01/20 03:54:21;;;;;;;13.88;8.35;;;;;;;;;;5014392;28;20034;-59
2024/01/20 03:56:46;;;;;;;14.00;9.00;;;;;;;;;;5014287;28;20096;-59
2024/01/20 03:59:12;;;;;;;13.05;8.85;;;;;;;;;;4996503;28;20033;-59
2024/01/20 04:01:39;;;;;;;11.77;8.48;;;;;;;;;;4996603;28;20033;-59
2024/01/20 04:04:05;;;;;;;17.23;9.38;;;;;;;;;;4996856;28;20029;-59
2024/01/20 04:06:31;;;;;;;12.65;8.70;;;;;;;;;;5014245;28;20030;-59
2024/01/20 04:08:57;;;;;;;15.75;9.35;;;;;;;;;;5014552;28;20109;-59
2024/01/20 04:11:22;;;;;;;13.77;8.90;;;;;;;;;;5014062;28;20528;-59
2024/01/20 04:13:47;;;;;;;12.80;8.63;;;;;;;;;;5014077;28;20026;-59
2024/01/20 04:16:13;;;;;;;14.75;8.70;;;;;;;;;;5013970;28;20030;-59
2024/01/20 04:18:38;;;;;;;13.85;9.48;;;;;;;;;;5014083;28;20041;-59
2024/01/20 04:21:04;;;;;;;16.40;9.27;;;;;;;;;;5013909;28;20042;-59
2024/01/20 04:23:29;;;;;;;14.45;9.05;;;;;;;;;;5013807;28;20405;-59
2024/01/20 04:25:56;;;;;;;13.32;8.75;;;;;;;;;;5013925;28;20036;-59
2024/01/20 04:28:21;;;;;;;12.60;9.02;;;;;;;;;;4996295;28;20025;-59
2024/01/20 04:30:46;;;;;;;15.57;9.15;;;;;;;;;;5013955;28;20068;-60
2024/01/20 04:33:12;;;;;;;13.38;8.55;;;;;;;;;;4996271;28;20053;-60
2024/01/20 04:35:37;;;;;;;13.00;8.35;;;;;;;;;;5014044;28;20389;-59
2024/01/20 04:38:03;;;;;;;13.40;9.45;;;;;;;;;;5013842;28;20037;-60
2024/01/20 04:40:28;;;;;;;13.85;9.40;;;;;;;;;;5013809;28;20088;-59
2024/01/20 04:42:54;;;;;;;12.80;8.85;;;;;;;;;;5013642;28;20381;-59
2024/01/20 04:45:20;;;;;;;13.82;8.40;;;;;;;;;;5013929;28;20152;-59
2024/01/20 04:47:45;;;;;;;14.90;8.80;;;;;;;;;;5013820;28;20030;-60
2024/01/20 04:50:11;;;;;;;14.05;8.07;;;;;;;;;;4996436;28;20551;-59
2024/01/20 04:52:37;;;;;;;13.80;8.05;;;;;;;;;;5013920;28;20026;-59
2024/01/20 04:55:02;;;;;;;13.25;8.45;;;;;;;;;;5013586;28;20060;-59
2024/01/20 04:57:28;;;;;;;10.15;7.43;;;;;;;;;;5013580;28;20109;-59
2024/01/20 04:59:53;;;;;;;13.05;8.00;;;;;;;;;;5013510;28;20029;-59
2024/01/20 05:02:20;;;;;;;11.70;8.13;;;;;;;;;;4996011;28;20034;-60
2024/01/20 05:04:45;;;;;;;13.07;8.38;;;;;;;;;;5013414;28;20030;-60
2024/01/20 05:07:11;;;;;;;13.52;8.52;;;;;;;;;;5013965;28;20121;-60
2024/01/20 05:09:36;;;;;;;11.80;8.27;;;;;;;;;;4997340;28;20029;-58
2024/01/20 05:12:02;;;;;;;14.13;7.88;;;;;;;;;;5017726;28;20030;-58
2024/01/20 05:14:27;;;;;;;15.30;8.18;;;;;;;;;;5017368;28;20084;-64
2024/01/20 05:16:53;;;;;;;12.45;7.78;;;;;;;;;;5017807;28;20092;-64
2024/01/20 05:19:18;;;;;;;11.65;7.97;;;;;;;;;;5017524;28;20026;-64
2024/01/20 05:21:44;;;;;;;11.77;7.45;;;;;;;;;;5016889;28;20080;-65
2024/01/20 05:24:10;;;;;;;14.27;8.30;;;;;;;;;;5017408;28;20386;-65
2024/01/20 05:26:35;;;;;;;11.93;7.75;;;;;;;;;;5017425;28;20037;-65
2024/01/20 05:29:01;;;;;;;12.13;7.60;;;;;;;;;;4999853;28;20034;-66
2024/01/20 05:31:31;;;;;;;11.98;7.32;;;;;;;;;;4999803;28;20481;-65
2024/01/20 05:33:57;;;;;;;13.32;7.70;;;;;;;;;;5016927;28;20030;-65
2024/01/20 05:36:22;;;;;;;12.38;7.50;;;;;;;;;;4999397;28;20029;-68
2024/01/20 05:38:48;;;;;;;11.10;7.15;;;;;;;;;;5016918;28;20581;-68
2024/01/20 05:41:14;;;;;;;10.82;6.53;;;;;;;;;;5016816;28;20037;-67
2024/01/20 05:43:39;;;;;;;12.25;7.53;;;;;;;;;;5016917;28;20026;-65
2024/01/20 05:46:07;;;;;;;8.65;6.32;;;;;;;;;;5017178;28;20446;-65
2024/01/20 05:48:35;;;;;;;8.88;5.75;;;;;;;;;;5016702;28;20036;-66
2024/01/20 05:51:01;;;;;;;8.90;5.47;;;;;;;;;;5016825;28;20080;-65
2024/01/20 05:53:26;;;;;;;10.95;5.80;;;;;;;;;;5016961;28;20030;-65
2024/01/20 05:55:52;;;;;;;10.77;6.72;;;;;;;;;;5016961;28;20585;-67
2024/01/20 05:58:17;;;;;;;8.45;5.43;;;;;;;;;;5017028;28;20038;-66
2024/01/20 06:00:44;;;;;;;7.60;5.78;;;;;;;;;;5016748;28;20040;-67
2024/01/20 06:03:10;;;;;;;9.23;5.53;;;;;;;;;;5016200;28;20030;-68
2024/01/20 06:05:35;;;;;;;7.43;5.15;;;;;;;;;;5016678;28;20036;-68
2024/01/20 06:08:01;;;;;;;7.38;5.07;;;;;;;;;;5016565;28;20026;-66
2024/01/20 06:10:26;;;;;;;6.82;4.97;;;;;;;;;;5016714;28;20039;-69
2024/01/20 06:12:51;;;;;;;8.73;5.47;;;;;;;;;;5015993;28;20389;-67
2024/01/20 06:15:17;;;;;;;7.20;5.13;;;;;;;;;;5031504;28;20132;-66
2024/01/20 06:17:42;;;;;;;6.60;4.47;;;;;;;;;;5011065;28;20120;-67
2024/01/20 06:20:10;;;;;;;7.00;4.40;;;;;;;;;;5013402;28;20060;-65
2024/01/20 06:22:37;;;;;;;7.07;3.92;;;;;;;;;;5011582;28;20065;-65
2024/01/20 06:25:03;;;;;;;8.50;5.38;;;;;;;;;;5013238;28;20034;-65
2024/01/20 06:27:30;;;;;;;6.97;4.70;;;;;;;;;;5012294;28;20041;-64
2024/01/20 06:29:55;;;;;;;8.18;5.60;;;;;;;;;;5012985;28;20116;-65
2024/01/20 06:32:21;;;;;;;8.32;5.18;;;;;;;;;;5012862;28;20457;-65
2024/01/20 06:34:46;;;;;;;8.43;4.75;;;;;;;;;;5012859;28;20036;-64
2024/01/20 06:37:12;;;;;;;9.55;5.45;;;;;;;;;;5012708;28;20041;-64
2024/01/20 06:39:39;;;;;;;7.80;5.40;;;;;;;;;;5012489;28;20051;-64
2024/01/20 06:42:04;;;;;;;8.27;4.97;;;;;;;;;;5012862;28;20136;-64
2024/01/20 06:44:30;;;;;;;6.28;5.40;;;;;;;;;;5012697;28;20560;-65
2024/01/20 06:46:55;;;;;;;7.88;5.35;;;;;;;;;;5012561;28;20036;-64
2024/01/20 06:49:20;;;;;;;10.15;5.75;;;;;;;;;;5027757;28;20030;-64
2024/01/20 06:51:47;;;;;;;9.57;5.35;;;;;;;;;;4994919;28;20036;-64
2024/01/20 06:54:12;;;;;;;8.27;5.93;;;;;;;;;;5012604;28;20104;-64
2024/01/20 06:56:38;;;;;;;8.57;5.72;;;;;;;;;;5012599;28;20034;-65
2024/01/20 06:59:03;;;;;;;8.55;5.95;;;;;;;;;;5012339;28;20109;-65
2024/01/20 07:01:31;;;;;;;6.75;5.43;;;;;;;;;;5012562;28;20048;-65
2024/01/20 07:03:57;;;;;;;7.43;5.28;;;;;;;;;;4994278;28;20076;-65
2024/01/20 07:06:23;;;;;;;8.32;5.47;;;;;;;;;;5012312;28;20041;-65
2024/01/20 07:08:49;;;;;;;7.97;4.65;;;;;;;;;;5012169;28;20022;-64
2024/01/20 07:11:14;;;;;;;6.70;4.72;;;;;;;;;;4994702;28;20092;-64
2024/01/20 07:13:40;;;;;;;9.02;5.40;;;;;;;;;;5012037;28;20033;-65
2024/01/20 07:16:12;;;;;;;7.80;5.70;;;;;;;;;;5010832;28;20033;-64
2024/01/20 07:18:38;;;;;;;9.85;6.00;;;;;;;;;;5012028;28;20060;-65
2024/01/20 07:21:04;;;;;;;8.77;5.90;;;;;;;;;;5012131;28;20034;-64
2024/01/20 07:23:29;;;;;;;5.50;3.90;;;;;;;;;;5011854;28;20049;-64
2024/01/20 07:25:55;;;;;;;6.15;5.13;;;;;;;;;;5012052;28;20097;-64
2024/01/20 07:28:21;;;;;;;7.30;5.68;;;;;;;;;;5011834;28;20372;-64
2024/01/20 07:30:46;;;;;;;8.43;5.43;;;;;;;;;;5011703;28;20033;-64
2024/01/20 07:33:12;;;;;;;6.80;4.88;;;;;;;;;;5011435;28;20033;-64
2024/01/20 07:35:37;;;;;;;5.50;4.25;;;;;;;;;;5027116;28;20034;-64
2024/01/20 07:38:03;;;;;;;5.05;4.20;;;;;;;;;;5011742;28;20415;-64
2024/01/20 07:40:29;;;;;;;8.32;5.22;;;;;;;;;;5011987;28;20121;-64
2024/01/20 07:42:56;;;;;;;7.95;5.78;;;;;;;;;;5013809;28;20116;-64
2024/01/20 07:45:22;;;;;;;8.00;5.28;;;;;;;;;;5013556;28;20030;-64
2024/01/20 07:47:48;;;;;;;7.10;4.97;;;;;;;;;;5013431;28;20436;-64
2024/01/20 07:50:13;;;;;;;7.43;5.57;;;;;;;;;;5012638;28;20717;-64
2024/01/20 07:52:41;;;;;;;9.15;5.90;;;;;;;;;;5013108;28;20081;-64
2024/01/20 07:55:06;;;;;;;6.63;5.45;;;;;;;;;;5012625;28;20084;-65
2024/01/20 07:57:32;;;;;;;10.63;6.57;;;;;;;;;;5011590;28;20041;-64
2024/01/20 07:59:57;;;;;;;9.70;6.85;;;;;;;;;;5011332;28;20022;-64
2024/01/20 08:02:23;;;;;;;9.55;6.13;;;;;;;;;;5011718;28;20030;-60
2024/01/20 08:04:48;;;;;;;6.57;5.93;;;;;;;;;;5026907;28;20032;-63
2024/01/20 08:07:13;;;;;;;7.20;4.63;;;;;;;;;;5010456;28;20034;-60
2024/01/20 08:09:39;;;;;;;10.00;6.82;;;;;;;;;;5011584;28;20109;-59
2024/01/20 08:12:05;;;;;;;8.13;6.18;;;;;;;;;;5010354;28;20401;-60
2024/01/20 08:14:30;;;;;;;7.32;5.45;;;;;;;;;;5011489;28;20140;-60
2024/01/20 08:16:56;;;;;;;6.28;4.40;;;;;;;;;;5011371;28;20133;-60
2024/01/20 08:19:21;;;;;;;8.77;6.43;;;;;;;;;;5010894;28;20464;-60
2024/01/20 08:21:46;;;;;;;6.75;5.22;;;;;;;;;;5010823;28;20045;-60
2024/01/20 08:24:12;;;;;;;6.80;4.70;;;;;;;;;;5011110;28;20038;-60
2024/01/20 08:26:37;;;;;;;6.55;5.15;;;;;;;;;;5011074;28;20112;-59
2024/01/20 08:29:03;;;;;;;5.28;3.92;;;;;;;;;;4993144;28;20037;-60
2024/01/20 08:31:28;;;;;;;9.65;6.63;;;;;;;;;;5010378;28;20041;-59
2024/01/20 08:33:54;;;;;;;7.20;4.78;;;;;;;;;;5009876;28;20033;-60
2024/01/20 08:36:20;;;;;;;8.68;6.15;;;;;;;;;;5010572;28;20037;-59
2024/01/20 08:38:45;;;;;;;9.48;6.68;;;;;;;;;;5010769;28;20026;-53
2024/01/20 08:41:11;;;;;;;11.10;6.40;;;;;;;;;;5010724;28;20428;-64
2024/01/20 08:43:40;;;;;;;8.18;5.32;;;;;;;;;;5010971;28;20070;-64
2024/01/20 08:46:06;;;;;;;10.70;5.80;;;;;;;;;;5013185;28;20026;-64
2024/01/20 08:48:31;;;;;;;8.73;6.20;;;;;;;;;;5014797;28;20292;-64
2024/01/20 08:50:57;;;;;;;9.65;6.20;;;;;;;;;;5014507;28;20519;-64
2024/01/20 08:53:22;;;;;;;10.82;5.80;;;;;;;;;;5014865;28;20088;-64
2024/01/20 08:55:47;;;;;;;9.18;5.97;;;;;;;;;;5015081;28;20377;-64
2024/01/20 08:58:13;;;;;;;9.38;6.00;;;;;;;;;;5013359;28;20405;-65
2024/01/20 09:00:38;;;;;;;10.18;6.35;;;;;;;;;;5014670;28;20124;-65
2024/01/20 09:03:04;;;;;;;8.57;6.10;;;;;;;;;;5013407;28;20065;-65
2024/01/20 09:05:29;;;;;;;7.22;5.57;;;;;;;;;;5014696;28;20058;-64
2024/01/20 09:07:55;;;;;;;7.45;5.32;;;;;;;;;;5014154;28;20441;-65
2024/01/20 09:10:20;;;;;;;11.30;7.35;;;;;;;;;;5014727;28;20048;-65
2024/01/20 09:12:45;;;;;;;7.85;5.68;;;;;;;;;;5014539;28;20038;-65
2024/01/20 09:15:11;;;;;;;8.52;5.65;;;;;;;;;;5014569;28;20038;-65
2024/01/20 09:17:37;;;;;;;12.30;7.25;;;;;;;;;;5014294;28;20036;-65
2024/01/20 09:20:03;;;;;;;13.07;7.15;;;;;;;;;;5013115;28;20137;-65
2024/01/20 09:22:29;;;;;;;12.40;5.35;;;;;;;;;;5013900;28;20603;-65
2024/01/20 09:24:56;;;;;;;9.25;6.45;;;;;;;;;;5010775;28;20022;-65
2024/01/20 09:27:23;;;;;;;9.93;6.18;;;;;;;;;;5014389;28;20041;-65
2024/01/20 09:29:48;;;;;;;7.78;5.28;;;;;;;;;;5014192;28;20038;-64
2024/01/20 09:32:14;;;;;;;9.63;6.30;;;;;;;;;;5013940;28;20038;-65
2024/01/20 09:34:39;;;;;;;8.80;5.70;;;;;;;;;;4996440;28;20071;-65
2024/01/20 09:37:05;;;;;;;11.48;6.82;;;;;;;;;;5014552;28;20496;-65
2024/01/20 09:39:31;;;;;;;6.68;3.88;;;;;;;;;;5013860;28;20067;-65
2024/01/20 09:41:57;;;;;;;10.27;6.55;;;;;;;;;;5013924;28;20030;-65
2024/01/20 09:44:22;;;;;;;10.82;6.80;;;;;;;;;;5029080;28;20038;-64
2024/01/20 09:46:47;;;;;;;9.60;6.55;;;;;;;;;;5013837;28;20041;-65
2024/01/20 09:49:13;;;;;;;12.85;6.50;;;;;;;;;;5013750;28;20037;-55
2024/01/20 09:51:45;;;;;;;12.88;7.22;;;;;;;;;;5012920;28;20417;-55
2024/01/20 09:54:11;;;;;;;10.93;6.60;;;;;;;;;;5013321;28;20129;-56
2024/01/20 09:56:37;;;;;;;12.93;6.60;;;;;;;;;;5012968;28;20088;-56
2024/01/20 09:59:03;;;;;;;10.00;5.70;;;;;;;;;;5029162;28;20041;-64
2024/01/20 10:01:29;;;;;;;11.23;6.53;;;;;;;;;;5013201;28;20112;-67
2024/01/20 10:04:00;;;;;;;14.15;6.88;;;;;;;;;;5012291;28;20018;-68
2024/01/20 10:06:26;;;;;;;;;;;;;;;;;;5013725;28;20106;-67
2024/01/20 10:08:52;;;;;;;8.60;7.13;;;;;;;;;;5013246;28;20056;-59
2024/01/20 10:11:17;;;;;;;12.27;6.78;;;;;;;;;;5013797;28;20104;-65
2024/01/20 10:13:43;;;;;;;9.65;6.50;;;;;;;;;;5013466;28;20481;-67
2024/01/20 10:16:08;;;;;;;11.65;7.32;;;;;;;;;;5013610;28;20108;-64
2024/01/20 10:18:34;;;;;;;13.80;7.60;;;;;;;;;;5028578;28;20554;-66
2024/01/20 10:21:06;;;;;;;10.95;6.50;;;;;;;;;;5028024;28;20030;-65
2024/01/20 10:23:37;;;;;;;11.45;6.30;;;;;;;;;;5013268;28;20045;-62
2024/01/20 10:26:06;;;;;;;11.00;6.50;;;;;;;;;;5013074;28;20040;-62
2024/01/20 10:28:33;;;;;;;13.68;7.55;;;;;;;;;;5011729;28;20084;-62
2024/01/20 10:31:07;;;;;;;9.50;6.10;;;;;;;;;;5011668;28;20030;-62
2024/01/20 10:33:33;;;;;;;10.05;6.55;;;;;;;;;;5011667;28;20022;-62
2024/01/20 10:35:59;;;;;;;10.27;7.07;;;;;;;;;;5012510;28;20805;-62
2024/01/20 10:38:28;;;;;;;13.20;6.82;;;;;;;;;;5012074;28;20037;-62
2024/01/20 10:40:54;;;;;;;10.85;7.32;;;;;;;;;;4995600;28;20160;-69
2024/01/20 10:43:20;;;;;;;13.35;7.80;;;;;;;;;;5012921;28;20041;-65
2024/01/20 10:46:08;;;;;;;12.88;6.72;;;;;;;;;;5012959;28;20037;-63
2024/01/20 10:48:36;;;;;;;11.82;5.78;;;;;;;;;;4984234;28;20045;-67
2024/01/20 10:51:07;;;;;;;7.95;5.65;;;;;;;;;;5012702;28;20026;-62
2024/01/20 10:53:33;;;;;;;9.82;6.45;;;;;;;;;;5012453;28;20030;-65
2024/01/20 10:55:58;;;;;;;10.68;6.53;;;;;;;;;;5012246;28;20531;-67
2024/01/20 10:58:30;;;;;;;9.25;6.47;;;;;;;;;;5012497;28;20041;-66
2024/01/20 11:00:55;;;;;;;10.57;6.53;;;;;;;;;;5012741;28;20034;-67
2024/01/20 11:03:21;;;;;;;9.70;5.78;;;;;;;;;;5012570;28;20105;-66
2024/01/20 11:05:48;;;;;;;9.35;5.22;;;;;;;;;;5012490;28;20037;-64
2024/01/20 11:08:13;;;;;;;8.60;5.25;;;;;;;;;;5011537;28;20030;-62
2024/01/20 11:10:43;;;;;;;11.77;6.32;;;;;;;;;;5011618;28;20049;-62
2024/01/20 11:13:10;;;;;;;13.27;7.72;;;;;;;;;;5012304;28;20120;-62
2024/01/20 11:15:36;;;;;;;8.90;6.00;;;;;;;;;;5012236;28;20034;-62
2024/01/20 11:18:02;;;;;;;8.82;5.50;;;;;;;;;;5012184;28;20042;-62
2024/01/20 11:20:29;;;;;;;11.20;6.88;;;;;;;;;;5011960;28;20041;-62
2024/01/20 11:22:55;;;;;;;8.38;5.82;;;;;;;;;;4990804;28;20096;-62
2024/01/20 11:25:22;;;;;;;11.30;6.57;;;;;;;;;;4992389;28;20046;-62
2024/01/20 11:27:55;;;;;;;11.55;5.25;;;;;;;;;;5007372;28;20026;-62
2024/01/20 11:30:35;;;;;;;9.50;5.63;;;;;;;;;;4991708;28;20034;-62
2024/01/20 11:33:01;;;;;;;7.07;5.95;;;;;;;;;;4994995;28;20543;-60
2024/01/20 11:35:27;;;;;;;5.38;3.72;;;;;;;;;;4993338;28;20041;-59
2024/01/20 11:37:57;;;;;;;12.50;6.18;;;;;;;;;;4995331;28;20125;-59
2024/01/20 11:40:23;;;;;;;9.73;6.03;;;;;;;;;;4995512;28;20088;-57
2024/01/20 11:42:48;;;;;;;9.00;5.25;;;;;;;;;;4995412;28;20022;-57
2024/01/20 11:45:13;;;;;;;8.55;5.75;;;;;;;;;;4995212;28;20037;-57
2024/01/20 11:47:39;;;;;;;7.65;5.35;;;;;;;;;;4995150;28;20041;-58
2024/01/20 11:50:05;;;;;;;9.00;5.55;;;;;;;;;;4994836;28;20131;-58
2024/01/20 11:52:31;;;;;;;10.35;5.50;;;;;;;;;;4995262;28;20026;-57
2024/01/20 11:54:57;;;;;;;7.32;4.95;;;;;;;;;;5009793;28;20085;-57
2024/01/20 11:57:23;;;;;;;8.77;6.22;;;;;;;;;;4995135;28;20026;-58
2024/01/20 11:59:48;;;;;;;8.70;6.07;;;;;;;;;;5009001;28;20041;-57
2024/01/20 12:02:17;;;;;;;9.52;5.70;;;;;;;;;;4993818;28;20030;-57
2024/01/20 12:04:45;;;;;;;7.25;5.03;;;;;;;;;;5009274;28;20030;-57
2024/01/20 12:07:11;;;;;;;11.95;4.85;;;;;;;;;;4992614;28;20045;-58
2024/01/20 12:09:36;;;;;;;12.00;6.00;;;;;;;;;;4991490;28;20022;-57
2024/01/20 12:12:02;;;;;;;7.28;4.65;;;;;;;;;;4974051;28;20484;-58
2024/01/20 12:14:28;;;;;;;11.15;5.30;;;;;;;;;;4991698;28;20033;-57
2024/01/20 12:16:54;;;;;;;10.07;5.97;;;;;;;;;;4991531;28;20466;-57
2024/01/20 12:19:19;;;;;;;7.60;5.45;;;;;;;;;;4991418;28;20031;-57
2024/01/20 12:21:45;;;;;;;6.63;3.47;;;;;;;;;;4992388;28;20022;-57
2024/01/20 12:24:13;;;;;;;8.38;6.03;;;;;;;;;;5012370;28;20038;-57
2024/01/20 12:26:42;;;;;;;9.52;5.40;;;;;;;;;;4995743;28;20060;-58
2024/01/20 12:29:08;;;;;;;9.25;5.85;;;;;;;;;;5028911;28;20544;-58
2024/01/20 12:31:33;;;;;;;9.35;5.93;;;;;;;;;;5013837;28;20029;-57
2024/01/20 12:33:59;;;;;;;7.85;5.40;;;;;;;;;;5014053;28;20026;-57
2024/01/20 12:36:26;;;;;;;4.60;3.72;;;;;;;;;;5013717;28;20084;-58
2024/01/20 12:38:51;;;;;;;10.02;6.60;;;;;;;;;;5013978;28;20040;-58
2024/01/20 12:41:16;;;;;;;9.75;5.57;;;;;;;;;;5013731;28;20125;-58
2024/01/20 12:43:45;;;;;;;5.38;3.45;;;;;;;;;;5013717;28;20040;-58
2024/01/20 12:46:10;;;;;;;8.38;5.45;;;;;;;;;;5013689;28;20465;-57
2024/01/20 12:48:36;;;;;;;6.90;3.83;;;;;;;;;;5013720;28;20057;-57
2024/01/20 12:51:01;;;;;;;8.50;4.75;;;;;;;;;;5013634;28;20026;-57
2024/01/20 12:53:27;;;;;;;10.85;6.60;;;;;;;;;;5013679;28;20156;-58
2024/01/20 12:55:52;;;;;;;8.23;5.47;;;;;;;;;;5013430;28;20045;-58
2024/01/20 12:58:17;;;;;;;11.40;6.53;;;;;;;;;;5013537;28;20030;-57
2024/01/20 13:00:43;;;;;;;11.02;6.53;;;;;;;;;;5029402;28;20038;-57
2024/01/20 13:03:08;;;;;;;9.48;6.47;;;;;;;;;;4996827;28;20033;-57
2024/01/20 13:05:33;;;;;;;8.57;5.65;;;;;;;;;;5013578;28;20026;-58
2024/01/20 13:07:59;;;;;;;8.48;5.32;;;;;;;;;;5013594;28;20064;-58
2024/01/20 13:10:24;;;;;;;8.27;5.38;;;;;;;;;;5028806;28;20377;-58
2024/01/20 13:12:50;;;;;;;10.45;6.38;;;;;;;;;;5013816;28;20034;-57
2024/01/20 13:15:16;;;;;;;11.50;6.50;;;;;;;;;;5013431;28;20473;-57
2024/01/20 13:17:41;;;;;;;4.55;2.88;;;;;;;;;;5014028;28;20030;-57
2024/01/20 13:20:07;;;;;;;10.32;6.05;;;;;;;;;;5013855;28;20049;-57
2024/01/20 13:22:32;;;;;;;12.50;6.30;;;;;;;;;;4998745;28;20089;-57
2024/01/20 13:24:58;;;;;;;7.15;4.95;;;;;;;;;;4976929;28;20482;-58
2024/01/20 13:27:23;;;;;;;12.88;6.65;;;;;;;;;;4993774;28;20027;-58
2024/01/20 13:29:48;;;;;;;6.78;4.13;;;;;;;;;;4994046;28;20166;-57
2024/01/20 13:32:14;;;;;;;11.15;6.90;;;;;;;;;;4997362;28;20067;-57
2024/01/20 13:34:39;;;;;;;9.55;6.18;;;;;;;;;;4979915;28;20464;-57
2024/01/20 13:37:05;;;;;;;13.88;8.20;;;;;;;;;;4997389;28;20041;-57
2024/01/20 13:39:30;;;;;;;9.32;3.03;;;;;;;;;;4997620;28;20362;-57
2024/01/20 13:41:56;;;;;;;8.20;5.10;;;;;;;;;;4997185;28;20053;-57
2024/01/20 13:44:22;;;;;;;10.60;5.20;;;;;;;;;;4997440;28;20030;-57
2024/01/20 13:46:47;;;;;;;9.00;4.93;;;;;;;;;;4979787;28;20030;-57
2024/01/20 13:49:13;;;;;;;8.68;5.88;;;;;;;;;;4997180;28;20456;-57
2024/01/20 13:51:38;;;;;;;7.65;5.13;;;;;;;;;;4979854;28;20026;-57
2024/01/20 13:54:04;;;;;;;9.55;5.68;;;;;;;;;;4979973;28;20073;-57
2024/01/20 13:56:29;;;;;;;10.43;5.40;;;;;;;;;;4997259;28;20026;-57
2024/01/20 13:58:55;;;;;;;7.97;5.05;;;;;;;;;;4997002;28;20047;-57
2024/01/20 14:01:22;;;;;;;9.55;5.85;;;;;;;;;;4997354;28;20536;-58
2024/01/20 14:03:48;;;;;;;8.95;5.32;;;;;;;;;;4997320;28;20039;-57
2024/01/20 14:06:13;;;;;;;9.30;6.25;;;;;;;;;;4997100;28;20030;-57
2024/01/20 14:08:40;;;;;;;9.27;6.13;;;;;;;;;;4979340;28;20042;-57
2024/01/20 14:11:06;;;;;;;10.30;5.75;;;;;;;;;;4996753;28;20085;-57
2024/01/20 14:13:32;;;;;;;7.30;4.82;;;;;;;;;;4997003;28;20031;-57
2024/01/20 14:15:58;;;;;;;9.85;5.43;;;;;;;;;;4996909;28;20053;-57
2024/01/20 14:18:23;;;;;;;6.97;5.32;;;;;;;;;;4979159;28;20470;-57
2024/01/20 14:20:48;;;;;;;12.50;6.03;;;;;;;;;;4996864;28;20030;-57
2024/01/20 14:23:14;;;;;;;7.95;5.10;;;;;;;;;;4996361;28;20047;-57
2024/01/20 14:25:39;;;;;;;8.35;5.60;;;;;;;;;;4997022;28;20034;-57